Welcome to our Virtual Airline
Sign-in:

Flight MFC36132

  • Submitted By: Ruberto Stutzer
  • Departure Airport: Port Lions (ORI)
  • Arrival Airport: Port Williams SPB (KPR)
  • Aircraft: DHC2 BEAVERA (N001MM)
  • Flight Time: 00.37.36
  • Date Submitted: 2019/07/11
  • Route: NO STOPS
  • Status: Accepted
Flight Details
Gross Revenue:
(5 load / $ 61.00 per unit
$ 305.00
Fuel Cost:
(34.0194 fuel used @ 5.1 / unit)
$ 173.50

Additional Log Information:

View Log

FS[17:59] ----- Flight Opened -----
FS[17:59] Cigar Box - 1.1.4.0
FS[17:59] NOTE: Boarding has started
FS[17:59] FS: FSX
FS[17:59] FSUIPC: v4,973
FS[17:59] Flight Number: MFC36132
FS[17:59] FS Aircraft: DHC-2A C-GSKY
FS[17:59] FS Model: DHC2
FS[17:59] FS Type: DeHavilland
FS[17:59] Departure: ORI
FS[17:59] Arrival: KPR
FS[17:59] Flight Level: 3500
FS[17:59] Flight Type: H
FS[17:59] Passengers: 5
FS[17:59] FOB: 156 lbs
FS[17:59] Gate: 3 - ORI
FS[17:59] Crash Detection: Disabled
FS[17:59] Crash Detection Aircraft: Disabled
FS[17:59] Engines: 1 Piston
FS[17:59] Parking Brake: Engaged
FS[17:59] Main Door Open
FS[17:59] COM1: 128.30
FS[17:59] COM2: 127.80
FS[17:59] Transponder: 1200
FS[17:59] NAV1: 113.70
FS[17:59] NAV2: 110.60
FS[17:59] ADF1: 284.0
FS[17:59] ADF2: 240.0
FS[17:59] Navigation Mode: NAV
FS[18:00] Main Door Closed
FS[18:00] Light Data: Beacon ON
FS[18:00] Engine 1: Started
FS[18:00] Light Data: Navigation ON
FS[18:00] Light Data: Strobe lights ON
FS[18:00] Flaps: Position 1
FS[18:01] COM1: 122.80
FS[18:01] Light Data: Taxi lights ON
FS[18:01] Parking Brake: Released
FS[18:01] NOTE: Pushing back
FS[18:02] Light Data: Landing lights ON
FS[18:03] NOTE: Taxi started
FS[18:03] NOTE: ----- TAKE OFF -----
FS[18:03] GS: 64 knots
FS[18:03] TAS: 65 knots
FS[18:03] IAS: 65 knots
FS[18:03] VS: 3 fpm
FS[18:03] FOB: 155 lbs
FS[18:03] Heading: 44°
FS[18:03] Pitch: 1°
FS[18:03] Bank: 0°
FS[18:03] Aircraft Weight: 3925,37 lbs
FS[18:03] Nearest Airport: ORI
FS[18:03] Distance: 0,08 miles
FS[18:03] Runway: ???
FS[18:03] Ground Surface: Gravel
FS[18:03] Ground Condition: Normal
FS[18:03] NOTE: Weather Report
FS[18:03] Wind Heading: 341°
FS[18:03] Wind Speed: 0 knots
FS[18:03] OAT: 15° C
FS[18:03] TAT: 16° C
FS[18:03] Precipitation: None
FS[18:03] Dew Point: 5° C
FS[18:03] Visibility: 62 miles
FS[18:03] METAR: No METAR available for ORI.
FS[18:03] NOTE: Climb started
FS[18:03] Landing Gear: Retracted
FS[18:03] GS: 95 knots
FS[18:03] TAS: 95 knots
FS[18:03] IAS: 95 knots
FS[18:03] VS: 440 fpm
FS[18:03] AGL: 33 ft
FS[18:03] AMSL: 82 ft
FS[18:03] View Mode: Spot Plane
FS[18:03] Autopilot: Engaged
FS[18:03] AGL: 456 ft
FS[18:03] AMSL: 456 ft
FS[18:05] Flaps: Position 0
FS[18:05] GS: 106 knots
FS[18:05] TAS: 108 knots
FS[18:05] IAS: 106 knots
FS[18:05] VS: -50 fpm
FS[18:19] Recovery: Flight Saved
FS[18:34] Autopilot: Disengaged
FS[18:34] AGL: 906 ft
FS[18:34] AMSL: 984 ft
FS[18:36] NOTE: ----- LANDED -----
FS[18:36] Landing Rate: -154,56 fpm
FS[18:36] GS: 68 knots
FS[18:36] TAS: 68 knots
FS[18:36] IAS: 68 knots
FS[18:36] VS: -170 fpm
FS[18:36] FOB: 82 lbs
FS[18:36] Heading: 45°
FS[18:36] Pitch: 3°
FS[18:36] Bank: 7°
FS[18:36] Aircraft Weight: 3852,22 lbs
FS[18:36] Nearest Airport: KPR
FS[18:36] Distance: 0,12 miles
FS[18:36] Runway: ???
FS[18:36] Ground Surface: Water
FS[18:36] Ground Condition: Normal
FS[18:36] NOTE: Weather Report
FS[18:36] Wind Heading: 341°
FS[18:36] Wind Speed: 0 knots
FS[18:36] OAT: 15° C
FS[18:36] TAT: 16° C
FS[18:36] Precipitation: None
FS[18:36] Dew Point: 5° C
FS[18:36] Visibility: 62 miles
FS[18:36] METAR: KPRB 111153Z AUTO 00000KT 10SM CLR 14/12 A3005 RMK AO2 SLP165 T01440117 10206 20144 53002KPRC 111153Z AUTO 20007KT 10SM CLR 18/03 A3023 RMK AO2 SLP142 T01830028 10239 20172 53003KPRG 111155Z AUTO 30006KT 10SM CLR 23/20 A2993 RMK AO2 70014 T02300201 10247 20210KPRN 111156Z AUTO 13004KT 7SM OVC002 26/23 A2992 RMK AO2 SLP126 70006 T02560228 10256 20244 53004KPRS 111155Z AUTO 36006KT 10SM CLR 26/13 A3010 RMK AO2 T02610133 10311 20260KPRX 111156Z AUTO 35005KT 10SM CLR 22/21 A3002 RMK AO2 SLP174 7//// T02170211 10222 20211 53013
FS[18:36] View Mode: Spot Plane
FS[18:36] NOTE: Taxi started
FS[18:38] Light Data: Landing lights OFF
FS[18:38] Light Data: Taxi lights OFF
FS[18:38] Engine 1: Stopped
FS[18:38] Light Data: Navigation OFF
FS[18:38] Light Data: Strobe lights OFF
FS[18:38] Light Data: Beacon OFF
FS[18:38] Main Door Open
FS[18:39] NOTE: Arrived
FS[18:39] Parking Brake: Engaged
FS[18:39] Gate: n/a
FS[18:39] NOTE: Flight Completed
FS[18:39] FS Aircraft: DHC-2A C-GSKY
FS[18:39] FS Model: DHC2
FS[18:39] FS Type: DeHavilland
FS[18:39] FOB: 81 lbs
FS[18:39] Fuel Used: 75 lbs
FS[18:39] Flight Time: 00:37:36
FS[18:39] Flight Time (Dawn): 00:00:00
FS[18:39] Flight Time (Day): 00:37:36
FS[18:39] Flight Time (Dusk): 00:00:00
FS[18:39] Flight Time (Night): 00:00:00
FS[18:39] Total Landings: 1
FS[18:39] MaxSim Rate: 0x
FS[18:39] Cigar Box - 1.1.4.0
FS[18:39] ----- Flight Closed -----

Comments

Commenter Comment
Ruberto Stutzer I had to make this flight on auto-pilor, because I had no reference at all, of any scenery. Must be some incompatibility with sceneries, since my sim allways crashed. But the flight was ok!

Route Map